Time;durP1;ratioP1;P1;durP2;ratioP2;P2;SDS_P1;SDS_P2;PMS_P1;PMS_P2;Temp;Humidity;BMP_temperature;BMP_pressure;BME280_temperature;BME280_humidity;BME280_pressure;Samples;Min_cycle;Max_cycle;Signal;HPM_P1;HPM_P2
2023/04/22 00:03:56;;;;;;;6.85;5.53;;;;;;;14.32;63.27;99523.84;10268395;28;20590;-58
2023/04/22 00:08:58;;;;;;;8.25;6.13;;;;;;;14.28;63.42;99523.34;10256616;28;20548;-58
2023/04/22 00:13:59;;;;;;;6.38;4.82;;;;;;;14.17;63.01;99506.75;10279994;28;20065;-58
2023/04/22 00:19:01;;;;;;;5.53;4.63;;;;;;;14.23;62.80;99516.81;10265456;28;20477;-58
2023/04/22 00:24:03;;;;;;;6.95;4.97;;;;;;;14.17;62.92;99515.63;10267666;28;20089;-58
2023/04/22 00:29:05;;;;;;;5.13;4.63;;;;;;;14.22;63.30;99520.50;10264928;28;20078;-58
2023/04/22 00:34:06;;;;;;;7.40;5.60;;;;;;;14.17;63.15;99518.28;10253494;28;20392;-57
2023/04/22 00:39:08;;;;;;;6.68;5.60;;;;;;;14.15;63.75;99512.28;10277290;28;20134;-58
2023/04/22 00:44:10;;;;;;;7.25;5.78;;;;;;;14.11;63.76;99511.78;10266593;28;20371;-58
2023/04/22 00:49:13;;;;;;;7.72;5.55;;;;;;;14.04;64.15;99493.88;10254022;28;20110;-58
2023/04/22 00:54:14;;;;;;;6.95;5.40;;;;;;;14.04;64.37;99502.75;10253519;28;20050;-58
2023/04/22 00:59:16;;;;;;;6.82;5.22;;;;;;;14.01;64.74;99496.88;10272523;28;20498;-57
2023/04/22 01:04:19;;;;;;;5.47;4.97;;;;;;;14.01;64.82;99503.06;10258873;28;20181;-57
2023/04/22 01:09:20;;;;;;;5.10;4.15;;;;;;;14.02;64.90;99504.75;10266427;28;20957;-58
2023/04/22 01:14:23;;;;;;;4.55;4.15;;;;;;;13.94;65.06;99499.38;10266490;28;20498;-58
2023/04/22 01:19:25;;;;;;;4.63;4.22;;;;;;;13.91;65.51;99483.63;10264236;28;20678;-59
2023/04/22 01:24:27;;;;;;;5.15;4.35;;;;;;;13.94;65.77;99489.50;10255190;28;20065;-57
2023/04/22 01:29:29;;;;;;;4.07;3.63;;;;;;;13.94;66.00;99492.16;10258457;28;20058;-57
2023/04/22 01:34:30;;;;;;;3.47;3.17;;;;;;;13.98;66.09;99487.34;10260723;28;20189;-59
2023/04/22 01:39:33;;;;;;;3.78;3.13;;;;;;;13.92;66.40;99478.13;10259486;28;20074;-57
2023/04/22 01:44:34;;;;;;;5.20;3.95;;;;;;;13.86;66.73;99473.44;10251851;28;20050;-57
2023/04/22 01:49:36;;;;;;;4.00;3.30;;;;;;;13.95;67.23;99493.03;10257397;28;20047;-57
2023/04/22 01:54:40;;;;;;;3.83;3.42;;;;;;;13.93;67.19;99497.69;10250888;28;20057;-56
2023/04/22 01:59:41;;;;;;;3.28;2.97;;;;;;;13.95;67.24;99490.34;10256503;28;20062;-58
2023/04/22 02:04:43;;;;;;;3.58;2.90;;;;;;;13.93;67.26;99484.31;10261647;28;20060;-55
2023/04/22 02:09:44;;;;;;;2.95;2.65;;;;;;;13.87;67.60;99480.47;10258943;28;20074;-56
2023/04/22 02:14:47;;;;;;;3.65;3.10;;;;;;;13.93;67.92;99495.88;10259514;28;20132;-56
2023/04/22 02:19:49;;;;;;;4.13;3.47;;;;;;;13.85;68.30;99495.81;10255926;28;20148;-58
2023/04/22 02:24:51;;;;;;;3.60;2.95;;;;;;;13.89;68.28;99494.50;10259385;28;20050;-56
2023/04/22 02:29:52;;;;;;;2.88;2.55;;;;;;;13.69;68.70;99480.59;10252156;28;20152;-56
2023/04/22 02:34:54;;;;;;;2.72;2.53;;;;;;;13.81;68.05;99493.66;10256908;28;20065;-58
2023/04/22 02:39:55;;;;;;;2.85;2.50;;;;;;;13.87;68.31;99511.72;10258030;28;20057;-56
2023/04/22 02:44:57;;;;;;;3.13;2.35;;;;;;;13.86;67.80;99515.41;10257893;28;20598;-56
2023/04/22 02:49:59;;;;;;;2.85;2.55;;;;;;;13.83;67.93;99510.38;10260040;28;20149;-56
2023/04/22 02:55:01;;;;;;;4.25;2.38;;;;;;;13.81;67.90;99499.00;10259058;28;20082;-57
2023/04/22 03:00:03;;;;;;;3.60;3.03;;;;;;;13.77;67.75;99507.34;10265308;28;20092;-57
2023/04/22 03:05:05;;;;;;;2.78;2.30;;;;;;;13.69;67.69;99483.25;10252565;28;20077;-56
2023/04/22 03:10:08;;;;;;;4.05;3.13;;;;;;;13.66;67.86;99483.59;10252725;28;20200;-57
2023/04/22 03:15:10;;;;;;;3.38;3.03;;;;;;;13.65;67.49;99489.94;10254159;28;20570;-56
2023/04/22 03:20:12;;;;;;;4.50;3.47;;;;;;;13.72;67.74;99500.81;10262126;28;20050;-56
2023/04/22 03:25:14;;;;;;;4.10;3.42;;;;;;;13.68;67.75;99497.63;10266541;28;20114;-56
2023/04/22 03:30:15;;;;;;;3.47;3.17;;;;;;;13.68;67.76;99510.16;10254990;28;20050;-56
2023/04/22 03:35:17;;;;;;;2.92;2.72;;;;;;;13.60;67.64;99505.59;10270449;28;20058;-57
2023/04/22 03:40:18;;;;;;;3.95;3.38;;;;;;;13.48;67.68;99485.50;10262731;28;20632;-56
2023/04/22 03:45:20;;;;;;;3.88;3.58;;;;;;;13.60;67.48;99516.31;10261409;28;20137;-56
2023/04/22 03:50:22;;;;;;;3.92;2.92;;;;;;;13.54;67.32;99506.25;10260769;28;20818;-56
2023/04/22 03:55:23;;;;;;;4.00;3.50;;;;;;;13.52;67.23;99500.25;10266133;28;20060;-56
2023/04/22 04:00:25;;;;;;;3.53;3.03;;;;;;;13.52;67.24;99509.09;10271336;28;20137;-56
2023/04/22 04:05:26;;;;;;;3.40;3.10;;;;;;;13.47;67.60;99505.25;10262971;28;20166;-55
2023/04/22 04:10:28;;;;;;;4.30;3.30;;;;;;;13.36;67.76;99503.66;10260346;28;20163;-56
2023/04/22 04:15:31;;;;;;;4.57;3.63;;;;;;;13.37;67.91;99506.19;10266781;28;20253;-56
2023/04/22 04:20:32;;;;;;;5.25;3.70;;;;;;;13.33;67.93;99507.50;10259633;28;20260;-56
2023/04/22 04:25:37;;;;;;;4.22;3.47;;;;;;;13.31;68.05;99504.13;10258660;28;20129;-57
2023/04/22 04:30:40;;;;;;;3.75;3.33;;;;;;;13.29;68.01;99498.09;10248078;28;20057;-56
2023/04/22 04:35:43;;;;;;;4.18;3.78;;;;;;;13.29;67.83;99492.75;10260031;28;20653;-57
2023/04/22 04:40:45;;;;;;;4.57;3.35;;;;;;;13.29;67.50;99492.75;10272264;28;20046;-56
2023/04/22 04:45:46;;;;;;;2.97;2.75;;;;;;;13.29;67.37;99482.06;10268433;28;20956;-57
2023/04/22 04:50:52;;;;;;;2.80;2.50;;;;;;;13.25;67.07;99480.69;10260625;28;20058;-57
2023/04/22 04:55:54;;;;;;;3.05;2.65;;;;;;;13.28;67.13;99477.72;10259506;28;20574;-56
2023/04/22 05:00:55;;;;;;;4.72;2.47;;;;;;;13.23;67.01;99480.88;10264409;28;20514;-56
2023/04/22 05:05:57;;;;;;;2.70;2.50;;;;;;;13.34;66.91;99487.78;10260682;28;20062;-56
2023/04/22 05:10:58;;;;;;;3.65;2.38;;;;;;;13.36;66.50;99476.94;10258423;28;20061;-56
2023/04/22 05:16:02;;;;;;;2.25;2.05;;;;;;;13.34;66.52;99474.44;10252530;28;20073;-56
2023/04/22 05:21:04;;;;;;;2.30;2.03;;;;;;;13.43;66.29;99486.81;10260804;28;20058;-56
2023/04/22 05:26:05;;;;;;;2.33;2.13;;;;;;;13.39;66.18;99476.63;10206343;28;20058;-58
2023/04/22 05:31:07;;;;;;;2.13;1.98;;;;;;;13.50;65.72;99488.88;10222479;28;20058;-55
2023/04/22 05:36:09;;;;;;;2.70;1.70;;;;;;;13.46;65.96;99482.16;10222988;28;20063;-56
2023/04/22 05:41:11;;;;;;;2.72;2.53;;;;;;;13.50;66.05;99489.69;10222238;28;20051;-55
2023/04/22 05:46:12;;;;;;;3.67;2.63;;;;;;;13.44;66.25;99491.19;10220467;28;20081;-55
2023/04/22 05:51:14;;;;;;;5.43;2.83;;;;;;;13.46;66.33;99492.88;10222070;28;20161;-55
2023/04/22 05:56:16;;;;;;;2.97;2.30;;;;;;;13.58;66.17;99505.75;10221472;28;20562;-55
2023/04/22 06:01:18;;;;;;;3.10;2.15;;;;;;;13.66;66.00;99510.34;10210893;28;20057;-55
2023/04/22 06:06:19;;;;;;;3.20;2.90;;;;;;;13.76;65.84;99519.03;10229698;28;20063;-56
2023/04/22 06:11:21;;;;;;;3.70;2.35;;;;;;;13.85;64.88;99509.19;10201264;28;20055;-56
2023/04/22 06:16:23;;;;;;;2.65;2.45;;;;;;;13.85;64.92;99497.69;10213740;28;20169;-55
2023/04/22 06:21:24;;;;;;;2.80;2.50;;;;;;;14.01;64.54;99508.41;10217781;28;20054;-55
2023/04/22 06:26:26;;;;;;;6.47;2.67;;;;;;;14.08;64.15;99493.38;10212789;28;20107;-56
2023/04/22 06:31:27;;;;;;;4.18;2.45;;;;;;;14.10;63.07;99507.44;10216787;28;20047;-55
2023/04/22 06:36:30;;;;;;;3.92;2.55;;;;;;;14.17;63.58;99509.44;10215112;28;20071;-56
2023/04/22 06:41:32;;;;;;;2.83;2.60;;;;;;;14.18;63.67;99501.25;10211786;28;20057;-55
2023/04/22 06:46:34;;;;;;;3.15;2.60;;;;;;;14.32;63.13;99507.78;10219895;28;20045;-56
2023/04/22 06:51:36;;;;;;;3.75;2.75;;;;;;;14.47;63.08;99514.16;10221829;28;20209;-55
2023/04/22 06:56:37;;;;;;;3.00;2.70;;;;;;;14.60;62.63;99512.81;10216100;28;20062;-54
2023/04/22 07:01:39;;;;;;;4.97;2.72;;;;;;;14.62;62.68;99511.69;10219676;28;20058;-56
2023/04/22 07:06:42;;;;;;;3.60;3.00;;;;;;;14.58;61.97;99498.78;10215442;28;20940;-57
2023/04/22 07:11:45;;;;;;;6.78;2.55;;;;;;;14.64;61.55;99503.50;10220390;28;20070;-57
2023/04/22 07:16:49;;;;;;;3.67;2.20;;;;;;;14.57;60.80;99497.09;10213934;28;20046;-55
2023/04/22 07:21:51;;;;;;;3.95;2.72;;;;;;;14.77;61.04;99516.34;10229060;28;20067;-56
2023/04/22 07:26:53;;;;;;;4.07;3.08;;;;;;;14.82;61.23;99501.44;10223783;28;20493;-56
2023/04/22 07:31:54;;;;;;;4.55;3.08;;;;;;;15.04;61.20;99504.41;10214020;28;20178;-56
2023/04/22 07:36:56;;;;;;;3.08;2.83;;;;;;;15.16;61.19;99500.41;10214164;28;20113;-56
2023/04/22 07:41:58;;;;;;;4.25;2.78;;;;;;;15.33;60.46;99500.34;10218875;28;20062;-55
2023/04/22 07:46:59;;;;;;;3.58;2.95;;;;;;;15.54;60.34;99492.53;10220117;28;20060;-56
2023/04/22 07:52:01;;;;;;;5.25;2.92;;;;;;;15.68;59.60;99495.50;10217790;28;20299;-57
2023/04/22 07:57:02;;;;;;;3.85;3.45;;;;;;;15.89;59.04;99487.69;10220715;28;20048;-56
2023/04/22 08:02:04;;;;;;;4.70;3.65;;;;;;;16.11;58.95;99471.81;10215725;28;20059;-56
2023/04/22 08:07:05;;;;;;;3.60;3.08;;;;;;;16.44;56.88;99484.97;10214954;28;20813;-56
2023/04/22 08:12:27;;;;;;;2.75;2.40;;;;;;;16.70;56.13;99478.38;10238363;28;21345;-56
2023/04/22 08:17:29;;;;;;;4.18;2.67;;;;;;;16.83;55.85;99478.59;10223106;28;20902;-56
2023/04/22 08:22:32;;;;;;;4.00;2.67;;;;;;;17.13;55.55;99479.47;10237699;28;20063;-60
2023/04/22 08:27:33;;;;;;;2.83;2.33;;;;;;;17.39;54.91;99477.34;10228920;28;20051;-55
2023/04/22 08:32:34;;;;;;;4.50;2.33;;;;;;;17.56;53.94;99478.78;10219836;28;20570;-56
2023/04/22 08:37:36;;;;;;;3.33;2.25;;;;;;;17.60;53.02;99473.88;10231727;28;20118;-56
2023/04/22 08:42:38;;;;;;;3.63;2.35;;;;;;;17.73;53.51;99460.59;10233560;28;20549;-56
2023/04/22 08:47:41;;;;;;;4.25;2.38;;;;;;;17.97;52.61;99470.19;10226687;28;20062;-56
2023/04/22 08:52:44;;;;;;;4.43;2.03;;;;;;;18.16;52.48;99473.28;10229528;28;20053;-56
2023/04/22 08:57:46;;;;;;;3.47;2.17;;;;;;;18.45;51.32;99471.47;10225398;28;20350;-55
2023/04/22 09:02:49;;;;;;;2.80;1.85;;;;;;;18.72;50.78;99467.97;10225831;28;20125;-55
2023/04/22 09:07:51;;;;;;;2.50;1.90;;;;;;;19.08;50.17;99461.63;10223809;28;20161;-55
2023/04/22 09:12:53;;;;;;;4.43;2.05;;;;;;;19.32;48.52;99456.75;10227824;28;20137;-56
2023/04/22 09:17:55;;;;;;;2.65;2.28;;;;;;;19.63;49.45;99452.72;10238254;28;20581;-57
2023/04/22 09:23:03;;;;;;;2.30;1.75;;;;;;;19.89;47.56;99445.78;10226951;28;20062;-56
2023/04/22 09:28:09;;;;;;;4.22;1.65;;;;;;;20.10;47.70;99447.47;10227447;28;20563;-59
2023/04/22 09:33:16;;;;;;;2.95;2.08;;;;;;;20.31;45.95;99452.72;10239329;28;20086;-57
2023/04/22 09:38:19;;;;;;;2.75;1.95;;;;;;;20.44;45.34;99449.16;10219031;28;20984;-57
2023/04/22 09:43:21;;;;;;;10.23;2.95;;;;;;;20.51;45.85;99451.03;10221761;28;20796;-57
2023/04/22 09:48:22;;;;;;;5.30;1.83;;;;;;;20.57;46.42;99448.34;10223970;28;20138;-57
2023/04/22 09:53:25;;;;;;;3.03;2.17;;;;;;;20.74;46.21;99456.06;10223589;28;20055;-57
2023/04/22 09:58:26;;;;;;;6.45;1.52;;;;;;;21.02;44.58;99450.41;10226696;28;20051;-58
2023/04/22 10:03:28;;;;;;;2.67;1.17;;;;;;;21.21;43.27;99429.75;10238783;28;20157;-56
2023/04/22 10:08:32;;;;;;;1.63;1.52;;;;;;;21.52;42.88;99429.03;10222419;28;20698;-57
2023/04/22 10:13:35;;;;;;;2.60;1.20;;;;;;;22.08;41.72;99432.03;10222064;28;20737;-58
2023/04/22 10:18:39;;;;;;;;;;;;;;;22.60;40.38;99438.13;10214209;28;20047;-57
2023/04/22 10:23:45;;;;;;;2.80;1.30;;;;;;;24.15;38.84;99418.97;10225896;28;19949;-57
2023/04/22 10:28:47;;;;;;;2.15;1.00;;;;;;;25.28;34.96;99415.34;10219301;28;20051;-57
2023/04/22 10:33:48;;;;;;;1.80;1.17;;;;;;;25.92;33.87;99409.78;10220001;28;20055;-60
2023/04/22 10:38:53;;;;;;;1.88;1.27;;;;;;;25.27;34.46;99412.88;10215295;28;20051;-58
2023/04/22 10:44:00;;;;;;;1.63;1.20;;;;;;;25.30;34.08;99413.22;10214358;28;20636;-58
2023/04/22 10:49:16;;;;;;;1.85;1.23;;;;;;;26.43;31.88;99398.13;10207252;28;20073;-58
2023/04/22 10:54:36;;;;;;;1.10;0.98;;;;;;;28.23;29.73;99381.19;10256187;28;20492;-58
2023/04/22 10:59:45;;;;;;;1.42;1.30;;;;;;;29.06;27.76;99382.56;10251794;28;20625;-57
2023/04/22 11:04:53;;;;;;;0.80;0.80;;;;;;;30.87;24.59;99376.19;10256156;28;20055;-58
2023/04/22 11:10:04;;;;;;;2.25;1.40;;;;;;;32.99;22.06;99373.63;10258052;28;20824;-59
2023/04/22 11:15:11;;;;;;;2.42;1.17;;;;;;;33.65;21.72;99374.69;10214008;28;20102;-58
2023/04/22 11:20:17;;;;;;;1.35;0.77;;;;;;;34.20;21.50;99355.91;10229265;28;20054;-59
2023/04/22 11:25:20;;;;;;;3.47;0.77;;;;;;;33.53;20.20;99356.97;10228783;28;20098;-58
2023/04/22 11:30:24;;;;;;;1.35;0.90;;;;;;;33.03;20.61;99335.25;10219338;28;20074;-59
2023/04/22 11:35:27;;;;;;;1.52;0.80;;;;;;;30.78;20.90;99337.50;10216403;28;20046;-58
2023/04/22 11:40:32;;;;;;;2.50;1.02;;;;;;;31.62;21.17;99331.34;10219635;28;20213;-57
2023/04/22 11:45:38;;;;;;;1.65;0.73;;;;;;;33.25;20.43;99340.25;10224933;28;20055;-58
2023/04/22 11:50:43;;;;;;;2.00;0.77;;;;;;;30.99;21.55;99324.53;10229019;28;20138;-58
2023/04/22 11:55:50;;;;;;;3.42;1.15;;;;;;;29.70;22.87;99329.31;10225534;28;20889;-58
2023/04/22 12:00:53;;;;;;;2.47;1.25;;;;;;;28.25;24.44;99323.47;10231501;28;20062;-58
2023/04/22 12:05:57;;;;;;;2.28;1.08;;;;;;;28.16;25.10;99323.94;10228387;28;20527;-57
2023/04/22 12:11:01;;;;;;;3.17;0.73;;;;;;;27.47;24.62;99300.94;10223570;28;20063;-57
2023/04/22 12:16:04;;;;;;;2.80;1.35;;;;;;;26.96;25.00;99319.44;10223983;28;20170;-57
2023/04/22 12:21:06;;;;;;;3.03;0.82;;;;;;;26.75;25.81;99311.03;10222967;28;20066;-57
2023/04/22 12:26:08;;;;;;;2.30;1.10;;;;;;;27.14;25.67;99310.09;10259438;28;20050;-57
2023/04/22 12:31:11;;;;;;;1.55;0.90;;;;;;;26.95;26.14;99277.69;10268139;28;20057;-56
2023/04/22 12:36:12;;;;;;;2.22;1.13;;;;;;;27.08;27.13;99303.78;10256059;28;20222;-57
2023/04/22 12:41:17;;;;;;;;;;;;;;;26.44;27.59;99304.28;10263136;28;20542;-57
2023/04/22 12:46:19;;;;;;;1.95;1.20;;;;;;;26.28;28.13;99297.78;10268921;28;19947;-57
2023/04/22 12:51:21;;;;;;;3.23;1.20;;;;;;;26.32;27.41;99293.47;10262887;28;20054;-57
2023/04/22 12:56:22;;;;;;;4.43;2.03;;;;;;;26.48;27.74;99299.13;10262875;28;20047;-56
2023/04/22 13:01:24;;;;;;;2.70;1.30;;;;;;;26.43;25.90;99292.53;10262479;28;20055;-59
2023/04/22 13:06:27;;;;;;;3.35;1.00;;;;;;;25.83;28.31;99310.41;10258884;28;20236;-52
2023/04/22 13:11:29;;;;;;;3.70;1.20;;;;;;;25.38;27.89;99306.59;10263729;28;20182;-53
2023/04/22 13:16:30;;;;;;;3.72;1.05;;;;;;;25.03;28.71;99299.38;10259711;28;20104;-52
2023/04/22 13:21:32;;;;;;;2.78;1.13;;;;;;;24.54;29.26;99312.47;10263895;28;20097;-53
2023/04/22 13:26:37;;;;;;;2.65;1.33;;;;;;;24.19;30.39;99305.16;10263450;28;20110;-53
2023/04/22 13:31:43;;;;;;;2.50;1.27;;;;;;;23.81;31.32;99314.56;10273567;28;20054;-53
2023/04/22 13:36:45;;;;;;;4.88;1.85;;;;;;;23.40;31.88;99299.91;10261816;28;20053;-54
2023/04/22 13:41:46;;;;;;;2.53;1.38;;;;;;;23.10;33.17;99303.44;10265865;28;20054;-54
2023/04/22 13:46:48;;;;;;;3.40;2.08;;;;;;;22.80;33.83;99303.38;10262295;28;20082;-53
2023/04/22 13:51:50;;;;;;;2.63;1.50;;;;;;;22.69;33.95;99307.69;10262827;28;20133;-52
2023/04/22 13:56:52;;;;;;;2.35;1.67;;;;;;;22.49;34.47;99307.88;10261740;28;20054;-52
2023/04/22 14:01:54;;;;;;;1.98;1.52;;;;;;;22.29;34.90;99298.03;10261909;28;20054;-52
2023/04/22 14:06:55;;;;;;;2.67;2.08;;;;;;;22.22;35.47;99298.09;10216193;28;20539;-52
2023/04/22 14:11:57;;;;;;;3.00;1.75;;;;;;;22.04;35.41;99292.66;10218002;28;20054;-53
2023/04/22 14:16:59;;;;;;;4.20;2.20;;;;;;;21.92;35.75;99297.13;10220738;28;20073;-53
2023/04/22 14:22:00;;;;;;;3.90;1.67;;;;;;;21.79;35.95;99298.88;10216241;28;20050;-58
2023/04/22 14:27:02;;;;;;;2.47;1.90;;;;;;;21.73;36.75;99320.63;10213417;28;20575;-57
2023/04/22 14:32:04;;;;;;;3.22;1.90;;;;;;;21.52;37.50;99299.06;10213400;28;20073;-57
2023/04/22 14:37:06;;;;;;;4.88;2.42;;;;;;;21.56;37.48;99321.13;10222177;28;20320;-56
2023/04/22 14:42:07;;;;;;;5.43;2.17;;;;;;;21.46;37.32;99332.41;10222477;28;20046;-56
2023/04/22 14:47:09;;;;;;;5.25;1.73;;;;;;;21.12;36.53;99356.09;10217912;28;20058;-55
2023/04/22 14:52:10;;;;;;;2.25;1.63;;;;;;;20.99;36.99;99364.28;10249309;28;20130;-55
2023/04/22 14:57:12;;;;;;;1.60;1.50;;;;;;;20.87;37.76;99344.31;10260596;28;20065;-56
2023/04/22 15:02:14;;;;;;;2.42;1.25;;;;;;;20.84;37.86;99335.59;10261085;28;20196;-57
2023/04/22 15:07:16;;;;;;;1.30;1.20;;;;;;;20.79;38.15;99343.53;10258035;28;20085;-56
2023/04/22 15:12:18;;;;;;;4.57;1.50;;;;;;;20.62;38.50;99331.47;10256315;28;20092;-56
2023/04/22 15:17:20;;;;;;;2.10;1.25;;;;;;;20.48;38.46;99325.28;10263080;28;20047;-57
2023/04/22 15:22:23;;;;;;;3.38;1.48;;;;;;;20.50;38.55;99312.34;10258055;28;20116;-56
2023/04/22 15:27:25;;;;;;;2.03;1.27;;;;;;;20.62;38.48;99336.88;10264329;28;20554;-59
2023/04/22 15:32:27;;;;;;;2.15;1.70;;;;;;;20.58;38.41;99330.22;10261883;28;20061;-57
2023/04/22 15:37:29;;;;;;;2.35;1.23;;;;;;;20.48;38.52;99334.19;10255054;28;20058;-57
2023/04/22 15:42:31;;;;;;;2.63;1.52;;;;;;;20.37;39.22;99313.22;10260359;28;20159;-57
2023/04/22 15:47:32;;;;;;;1.83;1.10;;;;;;;20.40;39.73;99334.44;10258494;28;20973;-58
2023/04/22 15:52:36;;;;;;;4.30;1.65;;;;;;;20.32;40.52;99337.34;10259261;28;20144;-57
2023/04/22 15:57:37;;;;;;;3.63;1.40;;;;;;;20.04;41.31;99324.91;10254842;28;20061;-56
2023/04/22 16:02:41;;;;;;;2.03;1.10;;;;;;;19.86;41.90;99317.41;10265550;28;20057;-54
2023/04/22 16:07:43;;;;;;;3.88;1.98;;;;;;;19.74;42.34;99319.00;10253923;28;20046;-56
2023/04/22 16:12:45;;;;;;;3.78;1.60;;;;;;;19.77;42.52;99327.59;10267940;28;20054;-56
2023/04/22 16:17:47;;;;;;;2.10;1.48;;;;;;;19.72;43.16;99327.31;10259013;28;20141;-56
2023/04/22 16:22:49;;;;;;;2.75;1.45;;;;;;;19.72;43.62;99327.31;10258650;28;20101;-56
2023/04/22 16:27:50;;;;;;;5.45;1.90;;;;;;;19.68;43.57;99323.38;10259617;28;20130;-56
2023/04/22 16:32:52;;;;;;;3.78;1.13;;;;;;;19.58;43.32;99333.75;10281842;28;20404;-55
2023/04/22 16:37:53;;;;;;;4.50;1.65;;;;;;;19.48;43.20;99317.13;10267461;28;20054;-55
2023/04/22 16:42:58;;;;;;;3.40;1.65;;;;;;;19.59;43.24;99321.91;10274374;28;20090;-56
2023/04/22 16:48:00;;;;;;;2.70;1.35;;;;;;;19.51;43.10;99298.63;10272258;28;20426;-55
2023/04/22 16:53:02;;;;;;;4.03;1.98;;;;;;;19.66;42.95;99305.72;10272535;28;20073;-55
2023/04/22 16:58:04;;;;;;;2.75;1.90;;;;;;;19.74;43.22;99309.06;10283018;28;20132;-55
2023/04/22 17:03:06;;;;;;;3.42;1.65;;;;;;;19.64;42.65;99311.34;10265779;28;20059;-56
2023/04/22 17:08:08;;;;;;;2.67;1.70;;;;;;;19.64;42.82;99324.00;10271188;28;20351;-56
2023/04/22 17:13:11;;;;;;;2.90;1.70;;;;;;;19.38;43.00;99310.25;10268299;28;20644;-55
2023/04/22 17:18:13;;;;;;;2.03;1.38;;;;;;;19.41;43.17;99323.34;10262283;28;20168;-55
2023/04/22 17:23:16;;;;;;;3.15;2.08;;;;;;;19.32;43.41;99323.72;10266766;28;20487;-57
2023/04/22 17:28:18;;;;;;;3.28;1.65;;;;;;;19.25;43.84;99316.44;10262215;28;20157;-55
2023/04/22 17:33:19;;;;;;;3.65;2.35;;;;;;;19.26;44.03;99328.06;10267684;28;20136;-55
2023/04/22 17:38:21;;;;;;;3.72;3.13;;;;;;;19.22;44.20;99321.41;10262108;28;20055;-56
2023/04/22 17:43:23;;;;;;;3.38;2.70;;;;;;;19.15;44.49;99324.06;10265312;28;20058;-56
2023/04/22 17:48:24;;;;;;;3.58;2.60;;;;;;;19.04;44.46;99325.50;10256637;28;20051;-56
2023/04/22 17:53:26;;;;;;;3.83;3.08;;;;;;;18.96;44.89;99328.38;10260854;28;20046;-55
2023/04/22 17:58:27;;;;;;;5.28;2.00;;;;;;;18.94;45.06;99333.13;10260937;28;20511;-55
2023/04/22 18:03:30;;;;;;;3.65;2.00;;;;;;;18.86;45.26;99338.69;10261316;28;20109;-55
2023/04/22 18:08:32;;;;;;;2.67;1.80;;;;;;;18.86;45.55;99350.28;10259604;28;20239;-56
2023/04/22 18:13:34;;;;;;;2.70;1.40;;;;;;;18.70;45.94;99340.63;10261036;28;20061;-54
2023/04/22 18:18:35;;;;;;;3.03;1.75;;;;;;;18.72;46.11;99337.75;10265428;28;20054;-52
2023/04/22 18:23:37;;;;;;;2.53;1.60;;;;;;;18.73;46.64;99344.81;10263096;28;20132;-52
2023/04/22 18:28:42;;;;;;;2.63;2.00;;;;;;;18.67;46.80;99351.81;10259583;28;20102;-52
2023/04/22 18:33:43;;;;;;;4.63;1.90;;;;;;;18.59;47.04;99349.28;10264226;28;20047;-57
2023/04/22 18:38:45;;;;;;;2.45;1.83;;;;;;;18.55;47.43;99364.19;10260452;28;21283;-52
2023/04/22 18:43:47;;;;;;;2.97;1.60;;;;;;;18.51;47.71;99362.91;10261265;28;20792;-52
2023/04/22 18:48:48;;;;;;;3.42;2.10;;;;;;;18.36;48.23;99365.72;10261582;28;20062;-53
2023/04/22 18:53:50;;;;;;;4.68;2.05;;;;;;;18.38;48.50;99369.88;10267787;28;20065;-52
2023/04/22 18:58:52;;;;;;;3.58;2.20;;;;;;;18.31;48.68;99377.06;10263769;28;20544;-52
2023/04/22 19:03:53;;;;;;;2.72;1.88;;;;;;;18.30;49.09;99391.56;10265301;28;20132;-51
2023/04/22 19:08:55;;;;;;;3.20;1.63;;;;;;;18.11;50.39;99392.25;10266118;28;20050;-55
2023/04/22 19:13:57;;;;;;;2.47;1.65;;;;;;;17.93;51.85;99403.47;10262451;28;20054;-55
2023/04/22 19:18:58;;;;;;;4.82;1.40;;;;;;;17.75;52.94;99411.94;10259150;28;20062;-54
2023/04/22 19:24:00;;;;;;;4.03;1.42;;;;;;;17.58;54.37;99412.19;10264927;28;20066;-55
2023/04/22 19:29:02;;;;;;;3.80;1.75;;;;;;;17.49;55.05;99416.84;10260434;28;20350;-54
2023/04/22 19:34:03;;;;;;;5.28;1.65;;;;;;;17.36;55.87;99408.59;10263186;28;20054;-55
2023/04/22 19:39:05;;;;;;;3.15;1.63;;;;;;;17.38;56.10;99405.72;10258892;28;20058;-55
2023/04/22 19:44:07;;;;;;;2.55;1.70;;;;;;;17.33;56.16;99402.78;10265459;28;20046;-54
2023/04/22 19:49:09;;;;;;;3.78;2.17;;;;;;;17.26;56.99;99408.91;10260210;28;20085;-55
2023/04/22 19:54:14;;;;;;;1.63;1.35;;;;;;;17.13;57.55;99409.56;10260556;28;20120;-56
2023/04/22 19:59:17;;;;;;;2.38;1.83;;;;;;;17.23;57.44;99420.00;10258883;28;20566;-56
2023/04/22 20:04:18;;;;;;;1.42;1.13;;;;;;;17.06;58.49;99413.19;10255847;28;20057;-56
2023/04/22 20:09:22;;;;;;;1.92;1.40;;;;;;;17.00;59.46;99419.31;10283236;28;20978;-56
2023/04/22 20:14:25;;;;;;;2.50;1.88;;;;;;;16.91;59.70;99422.06;10265592;28;20497;-56
2023/04/22 20:19:29;;;;;;;2.15;1.40;;;;;;;16.84;60.12;99426.47;10270495;28;20045;-56
2023/04/22 20:24:35;;;;;;;;;;;;;;;16.79;61.38;99428.91;10276944;28;20054;-56
2023/04/22 20:29:37;;;;;;;1.60;1.50;;;;;;;16.60;62.07;99409.63;10280586;28;19925;-56
2023/04/22 20:34:40;;;;;;;2.10;1.70;;;;;;;16.51;62.63;99409.88;10262879;28;20053;-56
2023/04/22 20:39:43;;;;;;;1.83;1.42;;;;;;;16.44;64.05;99425.91;10260620;28;20054;-55
2023/04/22 20:44:45;;;;;;;1.70;1.30;;;;;;;16.47;64.07;99433.59;10265773;28;20058;-54
2023/04/22 20:49:46;;;;;;;2.00;1.65;;;;;;;16.41;65.14;99420.88;10264991;28;20053;-55
2023/04/22 20:54:53;;;;;;;1.98;1.67;;;;;;;16.44;66.96;99429.41;10263569;28;20054;-54
2023/04/22 20:59:55;;;;;;;3.97;1.88;;;;;;;16.40;67.45;99435.31;10257775;28;20514;-55
2023/04/22 21:04:58;;;;;;;2.42;1.95;;;;;;;16.25;68.37;99440.66;10260587;28;20138;-56
2023/04/22 21:10:00;;;;;;;2.20;1.90;;;;;;;16.11;68.37;99434.22;10261846;28;20593;-53
2023/04/22 21:15:02;;;;;;;4.18;1.88;;;;;;;16.09;70.39;99441.59;10259675;28;20125;-54
2023/04/22 21:20:04;;;;;;;2.85;2.10;;;;;;;16.08;71.51;99440.78;10255924;28;20052;-54
2023/04/22 21:25:06;;;;;;;5.10;2.50;;;;;;;16.15;71.26;99438.19;10264492;28;20537;-55
2023/04/22 21:30:09;;;;;;;3.78;2.55;;;;;;;16.07;71.40;99446.31;10258324;28;20050;-55
2023/04/22 21:35:10;;;;;;;3.05;2.47;;;;;;;15.94;72.59;99452.25;10259565;28;20051;-55
2023/04/22 21:40:12;;;;;;;3.45;2.90;;;;;;;15.97;72.94;99457.28;10261602;28;20557;-56
2023/04/22 21:45:14;;;;;;;3.03;2.63;;;;;;;15.90;73.13;99459.03;10266844;28;20069;-55
2023/04/22 21:50:15;;;;;;;2.92;2.65;;;;;;;15.75;74.92;99453.56;10256495;28;20538;-55
2023/04/22 21:55:20;;;;;;;4.30;3.35;;;;;;;15.65;74.62;99439.53;10263102;28;20141;-55
2023/04/22 22:00:23;;;;;;;4.00;3.22;;;;;;;15.74;75.09;99451.88;10268801;28;20053;-55
2023/04/22 22:05:25;;;;;;;5.53;3.03;;;;;;;15.62;76.24;99455.97;10256534;28;20593;-55
2023/04/22 22:10:26;;;;;;;3.78;3.03;;;;;;;15.66;77.40;99454.63;10259218;28;20042;-55
2023/04/22 22:15:29;;;;;;;4.97;2.72;;;;;;;15.60;77.10;99449.91;10256316;28;20092;-59
2023/04/22 22:20:32;;;;;;;5.85;2.78;;;;;;;15.49;77.28;99449.31;10271110;28;20059;-55
2023/04/22 22:25:33;;;;;;;4.30;3.08;;;;;;;15.51;78.54;99449.97;10216591;28;20047;-55
2023/04/22 22:30:35;;;;;;;4.28;2.92;;;;;;;15.48;78.49;99449.50;10215510;28;20432;-54
2023/04/22 22:35:36;;;;;;;3.40;3.10;;;;;;;15.37;79.72;99450.69;10224213;28;20054;-55
2023/04/22 22:40:37;;;;;;;3.30;3.00;;;;;;;15.32;79.96;99447.72;10222094;28;20051;-55
2023/04/22 22:45:41;;;;;;;3.60;2.50;;;;;;;15.18;80.62;99458.16;10254983;28;20050;-55
2023/04/22 22:50:45;;;;;;;3.08;2.78;;;;;;;15.02;82.83;99452.84;10256369;28;20058;-55
2023/04/22 22:55:47;;;;;;;4.47;2.63;;;;;;;14.96;82.86;99453.53;10253268;28;20058;-54
2023/04/22 23:00:51;;;;;;;3.03;2.77;;;;;;;14.93;82.90;99449.34;10254943;28;20062;-55
2023/04/22 23:05:52;;;;;;;3.35;2.90;;;;;;;14.95;82.60;99436.63;10262038;28;20416;-56
2023/04/22 23:10:54;;;;;;;2.92;2.63;;;;;;;15.02;82.40;99451.00;10256375;28;20817;-56
2023/04/22 23:15:55;;;;;;;3.15;2.28;;;;;;;14.90;83.16;99440.81;10258590;28;20043;-54
2023/04/22 23:20:59;;;;;;;4.20;3.42;;;;;;;14.85;83.27;99436.81;10257118;28;20050;-55
2023/04/22 23:26:01;;;;;;;3.25;2.95;;;;;;;14.84;83.18;99445.84;10256261;28;20078;-54
2023/04/22 23:31:05;;;;;;;4.72;3.03;;;;;;;14.85;83.10;99434.13;10254771;28;20067;-54